Главная страница
METAR-TAF:

METAR-TAF

Аэропорты :

Багдад, Ирак

широта: 33-15-45N, долгота: 44-14-04E, высота над уровнем моря: 35 м

Текущие метеонаблюдения

Эта сводка был подготовлена 14 минут назад, в 21:00 UTC
Ветер 3 Узел от восточно-северо-восточный
Температура 24°C
Влажность 54%
Давление 1013 hPa
Видимость 10 км и более
Отдельные облака на высоте 3000 фута

METAR: ORBI 202100Z 07003KT 9999 SCT030 24/14 Q1013 NOSIG

Время: 00:14 (21:14 UTC)

Прогноз

Эта сводка был подготовлена 5 часа и 14 минут назад, в 16:00 UTC
Прогноз действительный с 20-го 18 UTC до 21-го 18 UTC
Ветер 8 Узел от восточно-юго-восточный
Видимость: 8000 м
изменения
С 21-го 06 UTC до 21-го 08 UTC
Ветер 20 Узел от юго-восточный
Видимость: 4000 м
Низовая пыльная метель
временами
С 21-го 06 UTC до 21-го 18 UTC
небольшая облачность на высоте 2500 фута, Кучево-дождевые.
Рассеянная облачность на высоте 3000 фута

TAF: ORBI 201600Z 2018/2118 11008KT 8000 SCT040SCT070 BECMG 2106/2108 14020KT 4000 BLDU TEMPO 2106/2118 TSSHRA FEW025CB BKN030

Метеонаблюдения и прогнозы для более 4000 аэропортов (сводки METAR и TAF).

Имеющиеся станции представлены на карте желтыми и красными точками.

Чтобы увидеть название станции, наведите на нее мышь.

Затем щелкните, чтобы увидеть метеонаблюдения и метеопрогнозы.

Управление картой: чтобы увеличить масштаб, щелкните зеленые кнопки с черным крестиком; чтобы уменьшить масштаб, щелкните зеленую кнопку с тире; для просмотра соседних карт щелкайте зеленые стрелки.


METAR-TAF: